Time,TemperatureF,DewpointF,PressureIn,WindDirection,WindDirectionDegrees,WindSpeedMPH,WindSpeedGustMPH,Humidity,HourlyPrecipIn,Conditions,Clouds,dailyrainin,SoftwareType,DateUTC
2013-04-24 00:01:00,50.6,44.7,30.11,East,89,0.9,2.0,80,0.00,NA,NA,0.00,WeatherLink_script,2013-04-24 04:01:00,
2013-04-24 00:02:00,50.6,44.7,30.11,East,89,1.4,2.0,80,0.00,NA,NA,0.00,WeatherLink_script,2013-04-24 04:02:00,
2013-04-24 00:03:00,50.6,44.7,30.11,East,89,1.4,2.0,80,0.00,NA,NA,0.00,WeatherLink_script,2013-04-24 04:03:00,
2013-04-24 00:08:00,50.8,44.8,30.11,East,89,0.0,0.0,80,0.00,NA,NA,0.00,WeatherLink_script,2013-04-24 04:08:00,
2013-04-24 00:10:00,50.8,44.8,30.11,East,89,0.0,0.0,80,0.00,NA,NA,0.00,WeatherLink_script,2013-04-24 04:10:00,
2013-04-24 00:15:00,50.7,44.8,30.12,East,89,0.0,0.0,80,0.00,NA,NA,0.00,WeatherLink_script,2013-04-24 04:15:00,
2013-04-24 00:20:00,50.6,44.3,30.11,East,89,0.0,0.0,79,0.00,NA,NA,0.00,WeatherLink_script,2013-04-24 04:20:00,
2013-04-24 00:26:00,50.5,44.5,30.11,East,89,0.2,1.0,80,0.00,NA,NA,0.00,WeatherLink_script,2013-04-24 04:26:00,
2013-04-24 00:31:00,50.4,44.4,30.12,East,89,0.0,0.0,80,0.00,NA,NA,0.00,WeatherLink_script,2013-04-24 04:31:00,
2013-04-24 00:36:00,50.4,44.4,30.11,East,89,0.5,2.0,80,0.00,NA,NA,0.00,WeatherLink_script,2013-04-24 04:36:00,
2013-04-24 00:41:00,50.4,44.4,30.12,East,89,0.7,2.0,80,0.00,NA,NA,0.00,WeatherLink_script,2013-04-24 04:41:00,
2013-04-24 00:46:00,50.3,44.7,30.12,East,89,1.3,2.0,81,0.00,NA,NA,0.00,WeatherLink_script,2013-04-24 04:46:00,
2013-04-24 00:51:00,50.3,44.7,30.12,East,89,1.8,3.0,81,0.00,NA,NA,0.00,WeatherLink_script,2013-04-24 04:51:00,
2013-04-24 00:56:00,50.5,44.9,30.12,East,89,1.6,3.0,81,0.00,NA,NA,0.00,WeatherLink_script,2013-04-24 04:56:00,
2013-04-24 01:01:00,50.5,44.9,30.11,East,89,1.8,3.0,81,0.00,NA,NA,0.00,WeatherLink_script,2013-04-24 05:01:00,
2013-04-24 01:06:00,50.5,44.9,30.12,East,89,0.4,2.0,81,0.00,NA,NA,0.00,WeatherLink_script,2013-04-24 05:06:00,
2013-04-24 01:11:00,50.3,44.7,30.11,East,89,0.0,0.0,81,0.00,NA,NA,0.00,WeatherLink_script,2013-04-24 05:11:00,
2013-04-24 01:16:00,50.3,44.7,30.11,East,89,0.0,0.0,81,0.00,NA,NA,0.00,WeatherLink_script,2013-04-24 05:16:00,
2013-04-24 01:21:00,50.2,44.6,30.11,East,89,0.0,0.0,81,0.00,NA,NA,0.00,WeatherLink_script,2013-04-24 05:21:00,
2013-04-24 01:26:00,50.2,44.9,30.10,East,89,0.0,0.0,82,0.00,NA,NA,0.00,WeatherLink_script,2013-04-24 05:26:00,
2013-04-24 01:31:00,50.1,44.8,30.10,East,89,0.0,0.0,82,0.00,NA,NA,0.00,WeatherLink_script,2013-04-24 05:31:00,
2013-04-24 01:36:00,49.9,44.6,30.10,East,89,0.0,0.0,82,0.00,NA,NA,0.00,WeatherLink_script,2013-04-24 05:36:00,
2013-04-24 01:41:00,49.6,44.4,30.10,East,89,0.0,0.0,82,0.00,NA,NA,0.00,WeatherLink_script,2013-04-24 05:41:00,
2013-04-24 01:46:00,49.5,44.2,30.10,East,89,0.0,0.0,82,0.00,NA,NA,0.00,WeatherLink_script,2013-04-24 05:46:00,
2013-04-24 01:51:00,49.3,44.4,30.10,East,89,0.0,0.0,83,0.00,NA,NA,0.00,WeatherLink_script,2013-04-24 05:51:00,
2013-04-24 01:56:00,49.2,44.6,30.10,East,89,0.0,0.0,84,0.00,NA,NA,0.00,WeatherLink_script,2013-04-24 05:56:00,
2013-04-24 02:01:00,49.2,44.6,30.09,East,89,0.0,0.0,84,0.00,NA,NA,0.00,WeatherLink_script,2013-04-24 06:01:00,
2013-04-24 02:06:00,49.2,44.9,30.09,East,89,0.0,0.0,85,0.00,NA,NA,0.00,WeatherLink_script,2013-04-24 06:06:00,
2013-04-24 02:11:00,49.2,44.9,30.09,East,89,0.0,0.0,85,0.00,NA,NA,0.00,WeatherLink_script,2013-04-24 06:11:00,
2013-04-24 02:16:00,49.1,44.8,30.09,East,89,0.0,0.0,85,0.00,NA,NA,0.00,WeatherLink_script,2013-04-24 06:16:00,
2013-04-24 02:21:00,49.0,44.7,30.08,East,89,1.6,3.0,85,0.00,NA,NA,0.00,WeatherLink_script,2013-04-24 06:21:00,
2013-04-24 02:26:00,49.0,44.7,30.08,East,89,0.0,0.0,85,0.00,NA,NA,0.00,WeatherLink_script,2013-04-24 06:26:00,
2013-04-24 02:31:00,49.1,44.8,30.08,East,89,0.7,3.0,85,0.00,NA,NA,0.00,WeatherLink_script,2013-04-24 06:31:00,
2013-04-24 02:36:00,49.0,44.7,30.08,East,89,0.6,2.0,85,0.00,NA,NA,0.00,WeatherLink_script,2013-04-24 06:36:00,
2013-04-24 02:41:00,49.0,44.7,30.08,East,89,1.1,3.0,85,0.00,NA,NA,0.00,WeatherLink_script,2013-04-24 06:41:00,
2013-04-24 02:46:00,48.9,44.6,30.07,East,89,0.6,1.0,85,0.00,NA,NA,0.00,WeatherLink_script,2013-04-24 06:46:00,
2013-04-24 02:51:00,48.9,44.6,30.07,East,89,1.3,2.0,85,0.00,NA,NA,0.00,WeatherLink_script,2013-04-24 06:51:00,
2013-04-24 02:56:00,48.9,44.9,30.07,East,89,0.9,3.0,86,0.00,NA,NA,0.00,WeatherLink_script,2013-04-24 06:56:00,
2013-04-24 03:01:00,48.9,44.6,30.07,East,89,0.6,1.0,85,0.00,NA,NA,0.00,WeatherLink_script,2013-04-24 07:01:00,
2013-04-24 03:06:00,48.8,44.8,30.07,East,89,1.2,3.0,86,0.00,NA,NA,0.00,WeatherLink_script,2013-04-24 07:06:00,
2013-04-24 03:11:00,48.8,44.8,30.07,East,89,0.6,2.0,86,0.00,NA,NA,0.00,WeatherLink_script,2013-04-24 07:11:00,
2013-04-24 03:16:00,48.7,44.7,30.07,East,89,0.9,3.0,86,0.00,NA,NA,0.00,WeatherLink_script,2013-04-24 07:16:00,
2013-04-24 03:21:00,48.8,44.8,30.07,East,89,0.4,1.0,86,0.00,NA,NA,0.00,WeatherLink_script,2013-04-24 07:21:00,
2013-04-24 03:26:00,48.6,44.6,30.06,East,89,0.5,1.0,86,0.00,NA,NA,0.00,WeatherLink_script,2013-04-24 07:26:00,
2013-04-24 03:31:00,48.6,44.9,30.06,East,89,1.9,3.0,87,0.00,NA,NA,0.00,WeatherLink_script,2013-04-24 07:31:00,
2013-04-24 03:36:00,48.6,44.9,30.06,East,89,1.2,2.0,87,0.00,NA,NA,0.00,WeatherLink_script,2013-04-24 07:36:00,
2013-04-24 03:41:00,48.6,44.6,30.06,East,89,0.7,2.0,86,0.00,NA,NA,0.00,WeatherLink_script,2013-04-24 07:41:00,
2013-04-24 03:46:00,48.5,44.5,30.06,East,89,1.6,2.0,86,0.00,NA,NA,0.00,WeatherLink_script,2013-04-24 07:46:00,
2013-04-24 03:51:00,48.5,44.8,30.06,East,89,1.8,3.0,87,0.00,NA,NA,0.00,WeatherLink_script,2013-04-24 07:51:00,
2013-04-24 03:56:00,48.5,44.8,30.05,East,89,1.8,3.0,87,0.00,NA,NA,0.00,WeatherLink_script,2013-04-24 07:56:00,
2013-04-24 04:01:00,48.4,44.7,30.05,East,90,1.5,3.0,87,0.00,NA,NA,0.00,WeatherLink_script,2013-04-24 08:01:00,
2013-04-24 04:06:00,48.3,44.6,30.05,East,99,0.3,1.0,87,0.00,NA,NA,0.00,WeatherLink_script,2013-04-24 08:06:00,
2013-04-24 04:12:00,48.3,44.6,30.05,East,99,1.8,3.0,87,0.00,NA,NA,0.00,WeatherLink_script,2013-04-24 08:12:00,
2013-04-24 04:17:00,48.2,44.8,30.05,East,99,1.1,3.0,88,0.00,NA,NA,0.00,WeatherLink_script,2013-04-24 08:17:00,
2013-04-24 04:22:00,48.2,44.8,30.06,East,99,1.7,2.0,88,0.00,NA,NA,0.00,WeatherLink_script,2013-04-24 08:22:00,
2013-04-24 04:27:00,48.2,44.8,30.05,East,99,1.7,3.0,88,0.00,NA,NA,0.00,WeatherLink_script,2013-04-24 08:27:00,
2013-04-24 04:32:00,48.0,44.6,30.06,East,99,2.5,3.0,88,0.00,NA,NA,0.00,WeatherLink_script,2013-04-24 08:32:00,
2013-04-24 04:37:00,47.8,44.4,30.06,East,99,2.6,3.0,88,0.00,NA,NA,0.00,WeatherLink_script,2013-04-24 08:37:00,
2013-04-24 04:42:00,47.8,44.7,30.05,East,99,2.6,4.0,89,0.00,NA,NA,0.00,WeatherLink_script,2013-04-24 08:42:00,
2013-04-24 04:47:00,47.8,44.7,30.05,East,99,2.9,4.0,89,0.00,NA,NA,0.00,WeatherLink_script,2013-04-24 08:47:00,
2013-04-24 04:52:00,47.7,44.6,30.05,East,99,2.9,4.0,89,0.00,NA,NA,0.00,WeatherLink_script,2013-04-24 08:52:00,
2013-04-24 04:57:00,47.7,44.6,30.05,East,99,2.5,3.0,89,0.00,NA,NA,0.00,WeatherLink_script,2013-04-24 08:57:00,
2013-04-24 05:02:00,47.4,44.3,30.05,East,99,2.7,5.0,89,0.00,NA,NA,0.00,WeatherLink_script,2013-04-24 09:02:00,
2013-04-24 05:07:00,47.3,44.2,30.05,East,99,2.3,3.0,89,0.00,NA,NA,0.00,WeatherLink_script,2013-04-24 09:07:00,
2013-04-24 05:12:00,47.1,44.0,30.05,East,99,2.5,3.0,89,0.00,NA,NA,0.00,WeatherLink_script,2013-04-24 09:12:00,
2013-04-24 05:17:00,46.9,44.1,30.05,East,99,1.4,3.0,90,0.00,NA,NA,0.00,WeatherLink_script,2013-04-24 09:17:00,
2013-04-24 05:22:00,46.8,44.0,30.05,East,99,1.8,3.0,90,0.00,NA,NA,0.00,WeatherLink_script,2013-04-24 09:22:00,
2013-04-24 05:27:00,46.7,43.9,30.05,SSW,199,1.6,3.0,90,0.00,NA,NA,0.00,WeatherLink_script,2013-04-24 09:27:00,
2013-04-24 05:32:00,46.5,44.0,30.04,SSW,199,2.4,3.0,91,0.00,NA,NA,0.00,WeatherLink_script,2013-04-24 09:32:00,
2013-04-24 05:37:00,46.5,44.0,30.05,SSW,198,1.9,3.0,91,0.00,NA,NA,0.00,WeatherLink_script,2013-04-24 09:37:00,
2013-04-24 05:42:00,46.4,43.9,30.04,SSW,199,2.1,3.0,91,0.00,NA,NA,0.00,WeatherLink_script,2013-04-24 09:42:00,
2013-04-24 05:47:00,46.3,43.8,30.05,SSW,199,1.8,3.0,91,0.00,NA,NA,0.00,WeatherLink_script,2013-04-24 09:47:00,
2013-04-24 05:52:00,46.3,43.8,30.05,SSW,198,1.2,2.0,91,0.00,NA,NA,0.00,WeatherLink_script,2013-04-24 09:52:00,
2013-04-24 05:57:00,46.1,43.6,30.04,SSW,198,2.0,3.0,91,0.00,NA,NA,0.00,WeatherLink_script,2013-04-24 09:57:00,
2013-04-24 06:02:00,46.1,43.9,30.04,SSW,199,1.7,3.0,92,0.00,NA,NA,0.00,WeatherLink_script,2013-04-24 10:02:00,
2013-04-24 06:07:00,46.1,43.9,30.05,SSW,200,2.2,4.0,92,0.00,NA,NA,0.00,WeatherLink_script,2013-04-24 10:07:00,
2013-04-24 06:12:00,46.0,43.8,30.05,SSW,200,1.2,2.0,92,0.00,NA,NA,0.00,WeatherLink_script,2013-04-24 10:12:00,
2013-04-24 06:17:00,45.9,43.7,30.05,SSW,200,1.7,3.0,92,0.00,NA,NA,0.00,WeatherLink_script,2013-04-24 10:17:00,
2013-04-24 06:22:00,46.1,43.9,30.05,SSW,200,2.0,3.0,92,0.00,NA,NA,0.00,WeatherLink_script,2013-04-24 10:22:00,
2013-04-24 06:27:00,46.1,43.9,30.05,SSW,200,2.6,4.0,92,0.00,NA,NA,0.00,WeatherLink_script,2013-04-24 10:27:00,
2013-04-24 06:32:00,46.1,43.9,30.05,SSW,200,2.2,4.0,92,0.00,NA,NA,0.00,WeatherLink_script,2013-04-24 10:32:00,
2013-04-24 06:37:00,46.1,43.9,30.05,WSW,255,1.6,3.0,92,0.00,NA,NA,0.00,WeatherLink_script,2013-04-24 10:37:00,
2013-04-24 06:42:00,46.1,43.9,30.05,SW,220,1.7,3.0,92,0.00,NA,NA,0.00,WeatherLink_script,2013-04-24 10:42:00,
2013-04-24 06:47:00,46.0,43.8,30.05,SW,220,1.9,3.0,92,0.00,NA,NA,0.00,WeatherLink_script,2013-04-24 10:47:00,
2013-04-24 06:52:00,45.9,44.0,30.05,SW,220,2.5,3.0,93,0.00,NA,NA,0.00,WeatherLink_script,2013-04-24 10:52:00,
2013-04-24 06:57:00,46.1,44.2,30.06,West,262,2.0,3.0,93,0.00,NA,NA,0.00,WeatherLink_script,2013-04-24 10:57:00,
2013-04-24 07:02:00,46.3,44.3,30.05,WSW,256,2.4,3.0,93,0.00,NA,NA,0.00,WeatherLink_script,2013-04-24 11:02:00,
2013-04-24 07:07:00,46.3,44.4,30.05,WSW,255,2.3,3.0,93,0.00,NA,NA,0.00,WeatherLink_script,2013-04-24 11:07:00,
2013-04-24 07:12:00,46.4,44.5,30.05,WSW,253,3.1,4.0,93,0.00,NA,NA,0.00,WeatherLink_script,2013-04-24 11:12:00,
2013-04-24 07:17:00,46.5,44.6,30.05,SW,231,3.0,4.0,93,0.00,NA,NA,0.00,WeatherLink_script,2013-04-24 11:17:00,
2013-04-24 07:22:00,46.6,44.7,30.05,South,184,3.1,4.0,93,0.00,NA,NA,0.00,WeatherLink_script,2013-04-24 11:22:00,
2013-04-24 07:27:00,46.7,44.8,30.04,WSW,250,1.8,3.0,93,0.00,NA,NA,0.00,WeatherLink_script,2013-04-24 11:27:00,
2013-04-24 07:32:00,46.7,44.8,30.05,West,262,2.9,4.0,93,0.00,NA,NA,0.00,WeatherLink_script,2013-04-24 11:32:00,
2013-04-24 07:37:00,46.8,44.9,30.05,SW,234,2.8,4.0,93,0.00,NA,NA,0.00,WeatherLink_script,2013-04-24 11:37:00,
2013-04-24 07:42:00,47.0,45.1,30.05,SW,221,3.0,5.0,93,0.00,NA,NA,0.00,WeatherLink_script,2013-04-24 11:42:00,
2013-04-24 07:47:00,47.1,45.2,30.05,SW,221,1.6,3.0,93,0.00,NA,NA,0.00,WeatherLink_script,2013-04-24 11:47:00,
2013-04-24 07:52:00,47.1,44.9,30.05,SW,221,2.4,3.0,92,0.00,NA,NA,0.00,WeatherLink_script,2013-04-24 11:52:00,
2013-04-24 07:57:00,47.3,45.1,30.05,SW,221,1.8,3.0,92,0.00,NA,NA,0.00,WeatherLink_script,2013-04-24 11:57:00,
2013-04-24 08:02:00,47.5,45.3,30.05,WSW,241,1.4,2.0,92,0.00,NA,NA,0.00,WeatherLink_script,2013-04-24 12:02:00,
2013-04-24 08:07:00,47.7,45.5,30.05,WSW,255,1.5,2.0,92,0.00,NA,NA,0.00,WeatherLink_script,2013-04-24 12:07:00,
2013-04-24 08:12:00,48.1,45.9,30.05,NNW,339,1.8,4.0,92,0.00,NA,NA,0.00,WeatherLink_script,2013-04-24 12:12:00,
2013-04-24 08:17:00,48.3,46.1,30.05,North,9,2.1,4.0,92,0.00,NA,NA,0.00,WeatherLink_script,2013-04-24 12:17:00,
2013-04-24 08:22:00,48.7,46.2,30.05,NW,321,2.2,4.0,91,0.00,NA,NA,0.00,WeatherLink_script,2013-04-24 12:22:00,
2013-04-24 08:27:00,49.1,46.6,30.05,West,259,1.9,4.0,91,0.00,NA,NA,0.00,WeatherLink_script,2013-04-24 12:27:00,
2013-04-24 08:32:00,49.5,47.0,30.05,SE,124,1.5,3.0,91,0.00,NA,NA,0.00,WeatherLink_script,2013-04-24 12:32:00,
2013-04-24 08:37:00,49.8,47.3,30.05,SE,124,1.6,2.0,91,0.00,NA,NA,0.00,WeatherLink_script,2013-04-24 12:37:00,
2013-04-24 08:42:00,50.1,47.3,30.04,SSE,162,1.5,3.0,90,0.00,NA,NA,0.00,WeatherLink_script,2013-04-24 12:42:00,
2013-04-24 08:47:00,50.5,47.4,30.04,SSE,162,1.6,3.0,89,0.00,NA,NA,0.00,WeatherLink_script,2013-04-24 12:47:00,
2013-04-24 08:52:00,50.8,47.7,30.03,SSE,162,1.8,3.0,89,0.00,NA,NA,0.00,WeatherLink_script,2013-04-24 12:52:00,
2013-04-24 08:57:00,51.2,48.0,30.03,SSE,162,2.1,3.0,89,0.00,NA,NA,0.00,WeatherLink_script,2013-04-24 12:57:00,
2013-04-24 09:02:00,51.5,48.1,30.04,SSE,162,2.0,3.0,88,0.00,NA,NA,0.00,WeatherLink_script,2013-04-24 13:02:00,
2013-04-24 09:07:00,52.1,48.4,30.03,SSE,162,0.1,1.0,87,0.00,NA,NA,0.00,WeatherLink_script,2013-04-24 13:07:00,
2013-04-24 09:12:00,52.4,48.6,30.03,SSE,162,1.5,3.0,87,0.00,NA,NA,0.00,WeatherLink_script,2013-04-24 13:12:00,
2013-04-24 09:17:00,53.0,48.9,30.03,SSE,162,0.2,2.0,86,0.00,NA,NA,0.00,WeatherLink_script,2013-04-24 13:17:00,
2013-04-24 09:22:00,53.7,49.6,30.02,SSE,161,1.2,3.0,86,0.00,NA,NA,0.00,WeatherLink_script,2013-04-24 13:22:00,
2013-04-24 09:27:00,54.5,49.7,30.02,SSE,161,1.6,3.0,84,0.00,NA,NA,0.00,WeatherLink_script,2013-04-24 13:27:00,
2013-04-24 09:32:00,55.5,50.5,30.02,SSE,168,1.7,3.0,83,0.00,NA,NA,0.00,WeatherLink_script,2013-04-24 13:32:00,
2013-04-24 09:37:00,56.2,50.4,30.02,SSE,168,2.4,4.0,81,0.00,NA,NA,0.00,WeatherLink_script,2013-04-24 13:37:00,
2013-04-24 09:42:00,57.3,50.8,30.02,SSW,207,1.9,3.0,79,0.00,NA,NA,0.00,WeatherLink_script,2013-04-24 13:42:00,
2013-04-24 09:47:00,57.7,50.9,30.02,SSW,193,2.2,3.0,78,0.00,NA,NA,0.00,WeatherLink_script,2013-04-24 13:47:00,
2013-04-24 09:52:00,58.3,51.1,30.02,SSE,149,3.4,5.0,77,0.00,NA,NA,0.00,WeatherLink_script,2013-04-24 13:52:00,
2013-04-24 09:57:00,58.7,51.1,30.02,SSE,154,1.7,2.0,76,0.00,NA,NA,0.00,WeatherLink_script,2013-04-24 13:57:00,
2013-04-24 10:02:00,59.4,51.8,30.02,SSE,156,1.2,2.0,76,0.00,NA,NA,0.00,WeatherLink_script,2013-04-24 14:02:00,
2013-04-24 10:07:00,60.2,51.8,30.02,SSW,211,1.9,3.0,74,0.00,NA,NA,0.00,WeatherLink_script,2013-04-24 14:07:00,
2013-04-24 10:12:00,60.8,52.5,30.02,SSW,211,1.0,3.0,74,0.00,NA,NA,0.00,WeatherLink_script,2013-04-24 14:12:00,
2013-04-24 10:17:00,61.7,52.9,30.02,SW,217,1.8,3.0,73,0.00,NA,NA,0.00,WeatherLink_script,2013-04-24 14:17:00,
2013-04-24 10:22:00,62.1,53.4,30.02,South,190,2.6,5.0,73,0.00,NA,NA,0.00,WeatherLink_script,2013-04-24 14:22:00,
2013-04-24 10:27:00,62.9,54.1,30.01,SSW,195,2.8,5.0,73,0.00,NA,NA,0.00,WeatherLink_script,2013-04-24 14:27:00,
2013-04-24 10:32:00,63.3,53.8,30.01,SSW,198,2.5,5.0,71,0.00,NA,NA,0.00,WeatherLink_script,2013-04-24 14:32:00,
2013-04-24 10:37:00,64.1,54.5,30.01,SSW,212,1.1,2.0,71,0.00,NA,NA,0.00,WeatherLink_script,2013-04-24 14:37:00,
2013-04-24 10:42:00,64.5,54.1,30.01,SSW,211,2.7,5.0,69,0.00,NA,NA,0.00,WeatherLink_script,2013-04-24 14:42:00,
2013-04-24 10:47:00,65.1,54.7,30.01,SSE,160,2.1,3.0,69,0.00,NA,NA,0.00,WeatherLink_script,2013-04-24 14:47:00,
2013-04-24 10:52:00,65.8,54.5,30.01,SSW,200,2.5,4.0,67,0.00,NA,NA,0.00,WeatherLink_script,2013-04-24 14:52:00,
2013-04-24 10:57:00,66.3,54.6,30.00,SW,215,3.4,5.0,66,0.00,NA,NA,0.00,WeatherLink_script,2013-04-24 14:57:00,
2013-04-24 11:02:00,67.1,55.8,30.00,SW,214,3.2,5.0,67,0.00,NA,NA,0.00,WeatherLink_script,2013-04-24 15:02:00,
2013-04-24 11:10:00,68.2,55.6,29.99,South,190,3.7,5.0,64,0.00,NA,NA,0.00,WeatherLink_script,2013-04-24 15:10:00,
2013-04-24 11:15:00,68.7,56.0,29.99,WSW,241,3.0,7.0,64,0.00,NA,NA,0.00,WeatherLink_script,2013-04-24 15:15:00,
2013-04-24 11:20:00,69.3,56.1,29.99,SW,232,1.5,4.0,63,0.00,NA,NA,0.00,WeatherLink_script,2013-04-24 15:20:00,
2013-04-24 11:25:00,70.0,55.9,29.99,WSW,251,3.1,6.0,61,0.00,NA,NA,0.00,WeatherLink_script,2013-04-24 15:25:00,
2013-04-24 11:30:00,70.3,55.8,29.99,SSW,194,1.7,3.0,60,0.00,NA,NA,0.00,WeatherLink_script,2013-04-24 15:30:00,
2013-04-24 11:36:00,70.9,55.3,29.99,West,268,2.6,4.0,58,0.00,NA,NA,0.00,WeatherLink_script,2013-04-24 15:36:00,
2013-04-24 11:41:00,71.6,55.0,29.98,SW,215,3.4,5.0,56,0.00,NA,NA,0.00,WeatherLink_script,2013-04-24 15:41:00,
2013-04-24 11:46:00,71.7,54.1,29.98,SW,232,3.3,5.0,54,0.00,NA,NA,0.00,WeatherLink_script,2013-04-24 15:46:00,
2013-04-24 11:51:00,71.8,54.8,29.98,SW,217,4.4,6.0,55,0.00,NA,NA,0.00,WeatherLink_script,2013-04-24 15:51:00,
2013-04-24 11:56:00,72.2,56.1,29.97,SSW,198,2.7,4.0,57,0.00,NA,NA,0.00,WeatherLink_script,2013-04-24 15:56:00,
2013-04-24 12:01:00,72.9,55.2,29.97,SSW,213,3.9,8.0,54,0.00,NA,NA,0.00,WeatherLink_script,2013-04-24 16:01:00,
2013-04-24 12:06:00,73.1,55.4,29.97,SW,227,3.4,4.0,54,0.00,NA,NA,0.00,WeatherLink_script,2013-04-24 16:06:00,
2013-04-24 12:11:00,73.2,54.5,29.96,South,187,4.0,6.0,52,0.00,NA,NA,0.00,WeatherLink_script,2013-04-24 16:11:00,
2013-04-24 12:16:00,73.3,55.6,29.96,SSW,206,3.8,5.0,54,0.00,NA,NA,0.00,WeatherLink_script,2013-04-24 16:16:00,
2013-04-24 12:21:00,73.8,55.0,29.95,South,185,3.0,6.0,52,0.00,NA,NA,0.00,WeatherLink_script,2013-04-24 16:21:00,
2013-04-24 12:26:00,73.9,54.7,29.95,SW,216,5.3,7.0,51,0.00,NA,NA,0.00,WeatherLink_script,2013-04-24 16:26:00,
2013-04-24 12:31:00,74.4,55.7,29.95,SSW,213,3.5,7.0,52,0.00,NA,NA,0.00,WeatherLink_script,2013-04-24 16:31:00,
2013-04-24 12:36:00,74.7,55.4,29.95,SSW,211,5.8,8.0,51,0.00,NA,NA,0.00,WeatherLink_script,2013-04-24 16:36:00,
2013-04-24 12:41:00,74.9,55.0,29.94,SSW,208,5.3,8.0,50,0.00,NA,NA,0.00,WeatherLink_script,2013-04-24 16:41:00,
2013-04-24 12:46:00,75.1,55.2,29.94,SSW,199,4.4,5.0,50,0.00,NA,NA,0.00,WeatherLink_script,2013-04-24 16:46:00,
2013-04-24 12:51:00,75.5,56.1,29.94,SSW,196,3.8,6.0,51,0.00,NA,NA,0.00,WeatherLink_script,2013-04-24 16:51:00,
2013-04-24 12:56:00,75.6,55.7,29.94,SW,219,3.4,6.0,50,0.00,NA,NA,0.00,WeatherLink_script,2013-04-24 16:56:00,
2013-04-24 13:01:00,76.0,55.4,29.94,West,269,5.4,9.0,49,0.00,NA,NA,0.00,WeatherLink_script,2013-04-24 17:01:00,
2013-04-24 13:06:00,75.7,54.6,29.94,WSW,244,4.6,8.0,48,0.00,NA,NA,0.00,WeatherLink_script,2013-04-24 17:06:00,
2013-04-24 13:11:00,75.5,55.0,29.93,SW,231,4.3,6.0,49,0.00,NA,NA,0.00,WeatherLink_script,2013-04-24 17:11:00,
2013-04-24 13:16:00,75.4,54.9,29.94,SW,225,3.5,6.0,49,0.00,NA,NA,0.00,WeatherLink_script,2013-04-24 17:16:00,
2013-04-24 13:21:00,75.7,56.2,29.93,SW,236,3.4,5.0,51,0.00,NA,NA,0.00,WeatherLink_script,2013-04-24 17:21:00,
2013-04-24 13:26:00,75.8,55.3,29.93,SSW,206,4.0,5.0,49,0.00,NA,NA,0.00,WeatherLink_script,2013-04-24 17:26:00,
2013-04-24 13:31:00,75.8,55.9,29.93,South,182,4.1,7.0,50,0.00,NA,NA,0.00,WeatherLink_script,2013-04-24 17:31:00,
2013-04-24 13:36:00,76.0,55.4,29.93,SW,232,4.9,9.0,49,0.00,NA,NA,0.00,WeatherLink_script,2013-04-24 17:36:00,
2013-04-24 13:41:00,76.2,55.6,29.93,SSW,205,3.5,5.0,49,0.00,NA,NA,0.00,WeatherLink_script,2013-04-24 17:41:00,
2013-04-24 13:46:00,76.5,55.3,29.92,SSE,151,3.3,5.0,48,0.00,NA,NA,0.00,WeatherLink_script,2013-04-24 17:46:00,
2013-04-24 13:51:00,76.7,56.1,29.92,SW,216,4.7,6.0,49,0.00,NA,NA,0.00,WeatherLink_script,2013-04-24 17:51:00,
2013-04-24 13:56:00,76.9,55.7,29.92,SW,225,5.9,10.0,48,0.00,NA,NA,0.00,WeatherLink_script,2013-04-24 17:56:00,
2013-04-24 14:01:00,76.5,55.9,29.92,SSW,199,5.9,7.0,49,0.00,NA,NA,0.00,WeatherLink_script,2013-04-24 18:01:00,
2013-04-24 14:06:00,76.4,55.8,29.92,SSW,200,5.2,8.0,49,0.00,NA,NA,0.00,WeatherLink_script,2013-04-24 18:06:00,
2013-04-24 14:11:00,76.6,55.4,29.91,South,186,4.4,7.0,48,0.00,NA,NA,0.00,WeatherLink_script,2013-04-24 18:11:00,
2013-04-24 14:16:00,76.9,56.3,29.92,South,177,3.7,5.0,49,0.00,NA,NA,0.00,WeatherLink_script,2013-04-24 18:16:00,
2013-04-24 14:21:00,77.1,55.3,29.92,SW,214,6.5,10.0,47,0.00,NA,NA,0.00,WeatherLink_script,2013-04-24 18:21:00,
2013-04-24 14:26:00,77.1,56.4,29.92,SW,221,4.4,7.0,49,0.00,NA,NA,0.00,WeatherLink_script,2013-04-24 18:26:00,
2013-04-24 14:31:00,77.6,55.2,29.91,SSW,202,3.3,5.0,46,0.00,NA,NA,0.00,WeatherLink_script,2013-04-24 18:31:00,
2013-04-24 14:36:00,78.0,55.5,29.91,WSW,254,4.9,11.0,46,0.00,NA,NA,0.00,WeatherLink_script,2013-04-24 18:36:00,
2013-04-24 14:41:00,78.2,54.4,29.91,SSW,211,5.5,7.0,44,0.00,NA,NA,0.00,WeatherLink_script,2013-04-24 18:41:00,
2013-04-24 14:46:00,78.2,55.1,29.91,SSW,201,6.0,9.0,45,0.00,NA,NA,0.00,WeatherLink_script,2013-04-24 18:46:00,
2013-04-24 14:51:00,77.9,53.6,29.90,South,190,5.9,7.0,43,0.00,NA,NA,0.00,WeatherLink_script,2013-04-24 18:51:00,
2013-04-24 14:56:00,77.2,54.2,29.90,SW,222,4.6,7.0,45,0.00,NA,NA,0.00,WeatherLink_script,2013-04-24 18:56:00,
2013-04-24 15:01:00,76.9,55.1,29.90,SW,223,3.7,7.0,47,0.00,NA,NA,0.00,WeatherLink_script,2013-04-24 19:01:00,
2013-04-24 15:06:00,76.3,53.4,29.90,SW,233,5.9,10.0,45,0.00,NA,NA,0.00,WeatherLink_script,2013-04-24 19:06:00,
2013-04-24 15:11:00,76.0,53.7,29.89,SW,225,4.0,7.0,46,0.00,NA,NA,0.00,WeatherLink_script,2013-04-24 19:11:00,
2013-04-24 15:16:00,75.5,53.2,29.89,SSW,206,5.7,7.0,46,0.00,NA,NA,0.00,WeatherLink_script,2013-04-24 19:16:00,
2013-04-24 15:21:00,74.9,53.3,29.89,SSW,204,4.5,6.0,47,0.00,NA,NA,0.00,WeatherLink_script,2013-04-24 19:21:00,
2013-04-24 15:26:00,74.8,53.2,29.89,SSW,197,6.2,10.0,47,0.00,NA,NA,0.00,WeatherLink_script,2013-04-24 19:26:00,
2013-04-24 15:31:00,74.4,52.2,29.88,SSW,202,4.1,7.0,46,0.00,NA,NA,0.00,WeatherLink_script,2013-04-24 19:31:00,
2013-04-24 15:36:00,74.4,52.8,29.88,SW,219,4.6,7.0,47,0.00,NA,NA,0.00,WeatherLink_script,2013-04-24 19:36:00,
2013-04-24 15:41:00,74.5,53.5,29.88,West,259,4.1,7.0,48,0.00,NA,NA,0.00,WeatherLink_script,2013-04-24 19:41:00,
2013-04-24 15:46:00,74.6,53.0,29.87,SW,215,5.3,6.0,47,0.00,NA,NA,0.00,WeatherLink_script,2013-04-24 19:46:00,
2013-04-24 15:51:00,74.6,52.5,29.88,WSW,243,4.9,7.0,46,0.00,NA,NA,0.00,WeatherLink_script,2013-04-24 19:51:00,
2013-04-24 15:56:00,75.2,52.4,29.88,SW,223,6.9,11.0,45,0.00,NA,NA,0.00,WeatherLink_script,2013-04-24 19:56:00,
2013-04-24 16:01:00,75.5,51.4,29.87,SSW,213,6.0,8.0,43,0.00,NA,NA,0.00,WeatherLink_script,2013-04-24 20:01:00,
2013-04-24 16:06:00,75.3,51.2,29.87,SSW,208,5.4,10.0,43,0.00,NA,NA,0.00,WeatherLink_script,2013-04-24 20:06:00,
2013-04-24 16:11:00,75.1,51.1,29.87,SW,236,8.0,12.0,43,0.00,NA,NA,0.00,WeatherLink_script,2013-04-24 20:11:00,
2013-04-24 16:16:00,74.9,50.9,29.87,SW,233,4.8,6.0,43,0.00,NA,NA,0.00,WeatherLink_script,2013-04-24 20:16:00,
2013-04-24 16:21:00,74.9,52.1,29.87,SSW,206,5.6,10.0,45,0.00,NA,NA,0.00,WeatherLink_script,2013-04-24 20:21:00,
2013-04-24 16:26:00,75.6,53.4,29.87,SW,216,4.9,6.0,46,0.00,NA,NA,0.00,WeatherLink_script,2013-04-24 20:26:00,
2013-04-24 16:31:00,76.3,54.6,29.86,SSW,211,5.7,8.0,47,0.00,NA,NA,0.00,WeatherLink_script,2013-04-24 20:31:00,
2013-04-24 16:36:00,76.9,54.5,29.87,South,191,4.3,7.0,46,0.00,NA,NA,0.00,WeatherLink_script,2013-04-24 20:36:00,
2013-04-24 16:41:00,77.1,54.7,29.87,SSW,207,5.1,8.0,46,0.00,NA,NA,0.00,WeatherLink_script,2013-04-24 20:41:00,
2013-04-24 16:46:00,76.5,52.9,29.86,SW,218,6.5,12.0,44,0.00,NA,NA,0.00,WeatherLink_script,2013-04-24 20:46:00,
2013-04-24 16:51:00,75.8,52.9,29.86,SW,218,7.4,11.0,45,0.00,NA,NA,0.00,WeatherLink_script,2013-04-24 20:51:00,
2013-04-24 16:56:00,75.5,52.6,29.86,SW,222,7.3,10.0,45,0.00,NA,NA,0.00,WeatherLink_script,2013-04-24 20:56:00,
2013-04-24 17:01:00,75.8,52.3,29.86,SSW,211,6.2,10.0,44,0.00,NA,NA,0.00,WeatherLink_script,2013-04-24 21:01:00,
2013-04-24 17:06:00,76.0,53.1,29.85,WSW,238,7.6,11.0,45,0.00,NA,NA,0.00,WeatherLink_script,2013-04-24 21:06:00,
2013-04-24 17:11:00,76.2,53.3,29.85,SSW,198,4.3,6.0,45,0.00,NA,NA,0.00,WeatherLink_script,2013-04-24 21:11:00,
2013-04-24 17:16:00,76.0,53.1,29.85,SSW,201,4.7,7.0,45,0.00,NA,NA,0.00,WeatherLink_script,2013-04-24 21:16:00,
2013-04-24 17:21:00,75.8,53.5,29.85,SW,232,5.9,10.0,46,0.00,NA,NA,0.00,WeatherLink_script,2013-04-24 21:21:00,
2013-04-24 17:26:00,75.7,53.5,29.85,SW,233,7.2,10.0,46,0.00,NA,NA,0.00,WeatherLink_script,2013-04-24 21:26:00,
2013-04-24 17:31:00,75.3,53.1,29.85,SSW,211,6.8,9.0,46,0.00,NA,NA,0.00,WeatherLink_script,2013-04-24 21:31:00,
2013-04-24 17:36:00,75.1,53.5,29.85,SW,216,4.1,6.0,47,0.00,NA,NA,0.00,WeatherLink_script,2013-04-24 21:36:00,
2013-04-24 17:41:00,75.1,53.5,29.84,South,175,4.9,7.0,47,0.00,NA,NA,0.00,WeatherLink_script,2013-04-24 21:41:00,
2013-04-24 17:46:00,74.9,54.5,29.84,SSW,212,3.9,5.0,49,0.00,NA,NA,0.00,WeatherLink_script,2013-04-24 21:46:00,
2013-04-24 17:51:00,74.9,53.9,29.84,SSW,196,4.9,7.0,48,0.00,NA,NA,0.00,WeatherLink_script,2013-04-24 21:51:00,
2013-04-24 17:56:00,74.5,53.5,29.84,SW,218,4.4,7.0,48,0.00,NA,NA,0.00,WeatherLink_script,2013-04-24 21:56:00,
2013-04-24 18:01:00,74.3,53.3,29.84,SW,217,3.5,5.0,48,0.00,NA,NA,0.00,WeatherLink_script,2013-04-24 22:01:00,
2013-04-24 18:06:00,74.1,54.2,29.84,SSW,198,4.6,7.0,50,0.00,NA,NA,0.00,WeatherLink_script,2013-04-24 22:06:00,
2013-04-24 18:11:00,73.7,53.9,29.84,SSW,212,6.7,8.0,50,0.00,NA,NA,0.00,WeatherLink_script,2013-04-24 22:11:00,
2013-04-24 18:16:00,73.2,53.4,29.84,SSW,209,7.3,11.0,50,0.00,NA,NA,0.00,WeatherLink_script,2013-04-24 22:16:00,
2013-04-24 18:21:00,72.7,53.5,29.84,SSW,212,4.7,6.0,51,0.00,NA,NA,0.00,WeatherLink_script,2013-04-24 22:21:00,
2013-04-24 18:26:00,72.5,53.9,29.85,SW,216,6.3,12.0,52,0.00,NA,NA,0.00,WeatherLink_script,2013-04-24 22:26:00,
2013-04-24 18:31:00,72.3,53.7,29.85,West,277,5.1,8.0,52,0.00,NA,NA,0.00,WeatherLink_script,2013-04-24 22:31:00,
2013-04-24 18:36:00,72.2,53.6,29.85,SSW,207,4.8,8.0,52,0.00,NA,NA,0.00,WeatherLink_script,2013-04-24 22:36:00,
2013-04-24 18:41:00,72.0,54.0,29.86,SW,225,7.3,10.0,53,0.00,NA,NA,0.00,WeatherLink_script,2013-04-24 22:41:00,
2013-04-24 18:46:00,71.9,54.3,29.86,SW,218,5.1,8.0,54,0.00,NA,NA,0.00,WeatherLink_script,2013-04-24 22:46:00,
2013-04-24 18:51:00,71.5,54.4,29.87,SW,231,5.2,12.0,55,0.00,NA,NA,0.00,WeatherLink_script,2013-04-24 22:51:00,
2013-04-24 18:56:00,71.2,54.2,29.88,SW,225,2.8,5.0,55,0.00,NA,NA,0.00,WeatherLink_script,2013-04-24 22:56:00,
2013-04-24 19:01:00,70.9,54.4,29.88,SW,229,5.8,9.0,56,0.00,NA,NA,0.00,WeatherLink_script,2013-04-24 23:01:00,
2013-04-24 19:06:00,70.7,54.7,29.88,WSW,245,5.2,7.0,57,0.00,NA,NA,0.00,WeatherLink_script,2013-04-24 23:06:00,
2013-04-24 19:11:00,70.3,54.4,29.89,SW,214,5.1,8.0,57,0.00,NA,NA,0.00,WeatherLink_script,2013-04-24 23:11:00,
2013-04-24 19:16:00,70.2,54.3,29.89,SW,228,5.3,7.0,57,0.00,NA,NA,0.00,WeatherLink_script,2013-04-24 23:16:00,
2013-04-24 19:21:00,70.0,54.5,29.90,SW,235,4.0,7.0,58,0.00,NA,NA,0.00,WeatherLink_script,2013-04-24 23:21:00,
2013-04-24 19:26:00,69.8,56.2,29.91,SW,236,4.5,7.0,62,0.00,NA,NA,0.00,WeatherLink_script,2013-04-24 23:26:00,
2013-04-24 19:31:00,69.3,56.6,29.91,SW,228,6.6,10.0,64,0.00,NA,NA,0.00,WeatherLink_script,2013-04-24 23:31:00,
2013-04-24 19:36:00,68.7,56.5,29.90,SW,236,4.7,8.0,65,0.00,NA,NA,0.00,WeatherLink_script,2013-04-24 23:36:00,
2013-04-24 19:41:00,68.2,56.4,29.89,SW,222,4.6,8.0,66,0.00,NA,NA,0.00,WeatherLink_script,2013-04-24 23:41:00,
2013-04-24 19:46:00,67.6,56.3,29.89,SW,228,2.9,5.0,67,0.00,NA,NA,0.00,WeatherLink_script,2013-04-24 23:46:00,
2013-04-24 19:51:00,67.4,56.4,29.89,SW,217,4.8,7.0,68,0.00,NA,NA,0.00,WeatherLink_script,2013-04-24 23:51:00,
2013-04-24 19:56:00,67.0,55.7,29.89,SW,234,4.1,6.0,67,0.00,NA,NA,0.00,WeatherLink_script,2013-04-24 23:56:00,
2013-04-24 20:01:00,67.0,55.7,29.89,SW,235,5.9,8.0,67,0.00,NA,NA,0.00,WeatherLink_script,2013-04-25 00:01:00,
2013-04-24 20:06:00,66.7,55.8,29.90,SW,236,5.6,8.0,68,0.00,NA,NA,0.00,WeatherLink_script,2013-04-25 00:06:00,
2013-04-24 20:11:00,66.7,55.7,29.90,WSW,241,5.2,8.0,68,0.00,NA,NA,0.00,WeatherLink_script,2013-04-25 00:11:00,
2013-04-24 20:16:00,66.5,55.6,29.91,SW,227,5.2,8.0,68,0.00,NA,NA,0.00,WeatherLink_script,2013-04-25 00:16:00,
2013-04-24 20:21:00,66.4,55.9,29.91,WSW,251,4.6,6.0,69,0.00,NA,NA,0.00,WeatherLink_script,2013-04-25 00:21:00,
2013-04-24 20:26:00,66.4,55.9,29.91,SW,236,3.8,7.0,69,0.00,NA,NA,0.00,WeatherLink_script,2013-04-25 00:26:00,
2013-04-24 20:31:00,66.2,55.7,29.90,WSW,252,3.8,7.0,69,0.00,NA,NA,0.00,WeatherLink_script,2013-04-25 00:31:00,
2013-04-24 20:36:00,66.1,56.0,29.91,SW,230,3.5,5.0,70,0.00,NA,NA,0.00,WeatherLink_script,2013-04-25 00:36:00,
2013-04-24 20:41:00,66.0,55.9,29.91,SW,222,4.6,6.0,70,0.00,NA,NA,0.00,WeatherLink_script,2013-04-25 00:41:00,
2013-04-24 20:46:00,65.9,55.9,29.91,SW,234,3.8,6.0,70,0.00,NA,NA,0.00,WeatherLink_script,2013-04-25 00:46:00,
2013-04-24 20:51:00,65.9,55.8,29.91,SW,224,3.9,7.0,70,0.00,NA,NA,0.00,WeatherLink_script,2013-04-25 00:51:00,
2013-04-24 20:56:00,65.9,55.8,29.91,SW,231,3.7,7.0,70,0.00,NA,NA,0.00,WeatherLink_script,2013-04-25 00:56:00,
2013-04-24 21:01:00,65.9,55.4,29.91,SW,236,4.5,7.0,69,0.00,NA,NA,0.00,WeatherLink_script,2013-04-25 01:01:00,
2013-04-24 21:06:00,65.9,55.8,29.91,SW,224,5.5,8.0,70,0.00,NA,NA,0.00,WeatherLink_script,2013-04-25 01:06:00,
2013-04-24 21:11:00,65.9,55.8,29.91,WSW,246,4.9,7.0,70,0.00,NA,NA,0.00,WeatherLink_script,2013-04-25 01:11:00,
2013-04-24 21:16:00,65.7,55.7,29.91,WSW,246,5.3,8.0,70,0.00,NA,NA,0.00,WeatherLink_script,2013-04-25 01:16:00,
2013-04-24 21:21:00,65.7,55.6,29.91,SW,216,5.1,7.0,70,0.00,NA,NA,0.00,WeatherLink_script,2013-04-25 01:21:00,
2013-04-24 21:26:00,65.5,55.9,29.92,WSW,241,3.9,6.0,71,0.00,NA,NA,0.00,WeatherLink_script,2013-04-25 01:26:00,
2013-04-24 21:31:00,65.6,55.9,29.92,SW,222,4.0,7.0,71,0.00,NA,NA,0.00,WeatherLink_script,2013-04-25 01:31:00,
2013-04-24 21:36:00,65.4,55.7,29.92,SW,232,3.4,5.0,71,0.00,NA,NA,0.00,WeatherLink_script,2013-04-25 01:36:00,
2013-04-24 21:41:00,65.4,55.7,29.92,SW,231,2.9,4.0,71,0.00,NA,NA,0.00,WeatherLink_script,2013-04-25 01:41:00,
2013-04-24 21:46:00,65.2,55.9,29.93,SW,221,4.4,7.0,72,0.00,NA,NA,0.00,WeatherLink_script,2013-04-25 01:46:00,
2013-04-24 21:51:00,65.1,55.8,29.92,SW,220,3.2,4.0,72,0.00,NA,NA,0.00,WeatherLink_script,2013-04-25 01:51:00,
2013-04-24 21:56:00,65.1,55.8,29.92,WSW,252,2.9,5.0,72,0.00,NA,NA,0.00,WeatherLink_script,2013-04-25 01:56:00,
2013-04-24 22:01:00,64.8,55.6,29.92,South,191,3.7,5.0,72,0.00,NA,NA,0.00,WeatherLink_script,2013-04-25 02:01:00,
2013-04-24 22:06:00,64.8,55.9,29.93,WSW,258,4.3,7.0,73,0.00,NA,NA,0.00,WeatherLink_script,2013-04-25 02:06:00,
2013-04-24 22:11:00,64.7,55.8,29.93,SW,228,3.7,7.0,73,0.00,NA,NA,0.00,WeatherLink_script,2013-04-25 02:11:00,
2013-04-24 22:16:00,64.6,55.7,29.93,SW,230,3.1,5.0,73,0.00,NA,NA,0.00,WeatherLink_script,2013-04-25 02:16:00,
2013-04-24 22:21:00,64.4,55.6,29.93,SW,220,3.1,5.0,73,0.00,NA,NA,0.00,WeatherLink_script,2013-04-25 02:21:00,
2013-04-24 22:26:00,64.4,55.9,29.93,WSW,241,3.2,5.0,74,0.00,NA,NA,0.00,WeatherLink_script,2013-04-25 02:26:00,
2013-04-24 22:31:00,64.4,55.5,29.94,SSW,212,3.1,5.0,73,0.00,NA,NA,0.00,WeatherLink_script,2013-04-25 02:31:00,
2013-04-24 22:36:00,64.4,55.6,29.94,WSW,253,2.9,4.0,73,0.00,NA,NA,0.00,WeatherLink_script,2013-04-25 02:36:00,
2013-04-24 22:41:00,64.4,55.6,29.94,WSW,242,2.9,5.0,73,0.00,NA,NA,0.00,WeatherLink_script,2013-04-25 02:41:00,
2013-04-24 22:46:00,64.6,56.1,29.94,WSW,240,3.7,6.0,74,0.00,NA,NA,0.00,WeatherLink_script,2013-04-25 02:46:00,
2013-04-24 22:51:00,64.7,55.8,29.94,West,263,2.2,5.0,73,0.00,NA,NA,0.00,WeatherLink_script,2013-04-25 02:51:00,
2013-04-24 22:56:00,64.8,55.9,29.94,WSW,257,2.2,4.0,73,0.00,NA,NA,0.00,WeatherLink_script,2013-04-25 02:56:00,
2013-04-24 23:01:00,64.8,55.9,29.94,WSW,257,1.6,3.0,73,0.00,NA,NA,0.00,WeatherLink_script,2013-04-25 03:01:00,
2013-04-24 23:06:00,64.8,55.9,29.94,WSW,257,1.5,3.0,73,0.00,NA,NA,0.00,WeatherLink_script,2013-04-25 03:06:00,
2013-04-24 23:11:00,64.6,55.7,29.94,WSW,257,1.3,3.0,73,0.00,NA,NA,0.00,WeatherLink_script,2013-04-25 03:11:00,
2013-04-24 23:16:00,64.4,56.0,29.94,WSW,257,0.7,2.0,74,0.00,NA,NA,0.00,WeatherLink_script,2013-04-25 03:16:00,
2013-04-24 23:21:00,64.5,56.0,29.96,WNW,291,3.2,7.0,74,0.00,NA,NA,0.00,WeatherLink_script,2013-04-25 03:21:00,
2013-04-24 23:26:00,64.3,56.9,29.96,WNW,286,4.3,7.0,77,0.00,NA,NA,0.00,WeatherLink_script,2013-04-25 03:26:00,
2013-04-24 23:31:00,63.5,57.9,29.97,WSW,239,3.6,6.0,82,0.04,NA,NA,0.04,WeatherLink_script,2013-04-25 03:31:00,
2013-04-24 23:36:00,62.7,57.8,29.97,WNW,288,3.2,6.0,84,0.04,NA,NA,0.04,WeatherLink_script,2013-04-25 03:36:00,
2013-04-24 23:41:00,61.6,57.4,29.98,WNW,294,6.0,10.0,86,0.05,NA,NA,0.05,WeatherLink_script,2013-04-25 03:41:00,
2013-04-24 23:46:00,60.7,55.5,29.98,NW,317,2.6,4.0,83,0.05,NA,NA,0.05,WeatherLink_script,2013-04-25 03:46:00,
2013-04-24 23:51:00,59.7,54.5,29.98,WNW,300,2.8,5.0,83,0.05,NA,NA,0.05,WeatherLink_script,2013-04-25 03:51:00,
2013-04-24 23:56:00,58.9,54.1,29.99,NW,311,2.5,5.0,84,0.05,NA,NA,0.05,WeatherLink_script,2013-04-25 03:56:00,